Meteorología y climatología de Navarra
Datos de la estación - Meteo Navarra

Estación de Sartaguda GN

Altitud 310 m.


Datos desde el 26/03/2020 hasta el 27/03/2020 en horario solar
Los datos son PROVISIONALES

Anterior Página 1 de 1 Siguiente Descargar: Formato para Excel 2000 o superior   Formato csv   Formato para OpenOffice Calc
Fecha Temperatura Humedad relativa Radiación global Insolación Precipitación Vel. viento 10 m Vel. viento 10 m Dir. viento 10 m
ºC % W/m² s l/m² m/s km/h º
26/03/2020 0:00 4.8 74 0.0 0 0.0 1.6 5.8 318
26/03/2020 0:10 4.8 73 0.0 0 0.0 1.6 5.8 321
26/03/2020 0:20 4.9 73 0.0 0 0.0 1.8 6.6 314
26/03/2020 0:30 5.4 71 0.0 0 0.0 2.2 8.0 320
26/03/2020 0:40 5.5 71 0.0 0 0.0 1.4 5.1 320
26/03/2020 0:50 5.7 71 0.0 0 0.0 2.5 9.1 339
26/03/2020 1:00 5.9 68 0.0 0 0.0 2.3 8.3 301
26/03/2020 1:10 6.2 67 0.0 0 0.0 3.4 12.1 291
26/03/2020 1:20 6.5 65 0.0 0 0.0 4.3 15.3 294
26/03/2020 1:30 6.8 64 0.0 0 0.0 5.1 18.5 279
26/03/2020 1:40 6.9 63 0.0 0 0.0 4.7 17.0 288
26/03/2020 1:50 6.9 64 0.0 0 0.0 4.1 14.6 295
26/03/2020 2:00 6.9 64 0.0 0 0.0 3.9 14.1 295
26/03/2020 2:10 6.9 64 0.0 0 0.0 3.4 12.2 302
26/03/2020 2:20 7.1 63 0.0 0 0.0 3.2 11.7 296
26/03/2020 2:30 7.1 63 0.0 0 0.0 3.3 11.8 297
26/03/2020 2:40 7.3 63 0.0 0 0.0 3.7 13.1 291
26/03/2020 2:50 7.4 63 0.0 0 0.0 4.9 17.6 283
26/03/2020 3:00 7.2 65 0.0 0 0.0 3.6 12.9 288
26/03/2020 3:10 7.3 66 0.0 0 0.0 4.0 14.5 291
26/03/2020 3:20 7.2 65 0.0 0 0.0 3.7 13.3 295
26/03/2020 3:30 7.1 66 0.0 0 0.0 4.3 15.3 307
26/03/2020 3:40 7.1 68 0.0 0 0.0 3.3 12.0 303
26/03/2020 3:50 6.9 69 0.0 0 0.0 3.5 12.5 298
26/03/2020 4:00 7.2 68 0.0 0 0.0 3.7 13.1 309
26/03/2020 4:10 7.3 67 0.0 0 0.0 4.1 14.6 303
26/03/2020 4:20 7.5 66 0.0 0 0.0 4.0 14.3 292
26/03/2020 4:30 7.5 67 0.0 0 0.0 3.2 11.4 296
26/03/2020 4:40 7.4 68 0.0 0 0.0 3.0 10.7 291
26/03/2020 4:50 7.2 67 0.0 0 0.0 2.5 9.0 300
26/03/2020 5:00 7.3 67 0.0 0 0.0 3.8 13.6 303
26/03/2020 5:10 7.4 67 0.0 0 0.0 3.7 13.2 293
26/03/2020 5:20 7.3 67 0.0 0 0.0 4.2 15.0 293
26/03/2020 5:30 7.4 67 0.0 0 0.0 4.2 15.2 289
26/03/2020 5:40 7.2 67 0.0 0 0.0 4.8 17.1 285
26/03/2020 5:50 7.2 67 0.0 0 0.0 5.5 19.9 281
26/03/2020 6:00 7.3 66 0.0 0 0.0 5.6 20.0 282
26/03/2020 6:10 7.4 66 0.0 0 0.0 5.3 19.0 283
26/03/2020 6:20 7.4 67 0.0 0 0.0 4.5 16.2 281
26/03/2020 6:30 7.5 68 4.8 0 0.0 5.2 18.8 278
26/03/2020 6:40 7.5 67 20.6 0 0.0 4.6 16.6 280
26/03/2020 6:50 7.6 67 25.7 0 0.0 4.5 16.3 279
26/03/2020 7:00 7.7 67 24.6 0 0.0 3.9 14.1 283
26/03/2020 7:10 7.6 68 39.7 0 0.0 3.8 13.7 288
26/03/2020 7:20 7.7 67 53.0 0 0.0 4.8 17.3 281
26/03/2020 7:30 8.0 65 82.6 0 0.0 5.5 19.8 283
26/03/2020 7:40 8.1 65 54.1 0 0.0 5.3 19.2 286
26/03/2020 7:50 8.1 65 74.8 0 0.0 4.2 15.3 292
26/03/2020 8:00 8.0 67 80.7 0 0.0 4.6 16.6 287
26/03/2020 8:10 8.0 67 111.0 0 0.0 4.3 15.5 294
26/03/2020 8:20 8.3 65 106.2 42 0.0 4.5 16.1 293
26/03/2020 8:30 8.4 64 93.3 0 0.0 4.9 17.7 286
26/03/2020 8:40 8.4 64 114.3 2 0.0 4.6 16.4 291
26/03/2020 8:50 8.8 63 253.0 132 0.0 5.5 19.9 285
26/03/2020 9:00 8.8 62 221.3 106 0.0 4.6 16.4 288
26/03/2020 9:10 8.9 61 143.1 0 0.0 4.5 16.1 295
26/03/2020 9:20 9.0 60 140.4 0 0.0 4.9 17.5 306
26/03/2020 9:30 9.3 59 434.9 378 0.0 5.9 21.1 298
26/03/2020 9:40 9.8 57 331.1 184 0.0 5.1 18.2 309
26/03/2020 9:50 9.8 55 362.1 210 0.0 5.3 18.9 316
26/03/2020 10:00 9.5 58 172.1 0 0.0 5.2 18.8 298
26/03/2020 10:10 9.3 60 189.6 0 0.0 3.9 13.9 317
26/03/2020 10:20 9.8 52 219.0 0 0.0 5.8 20.8 332
26/03/2020 10:30 10.1 50 372.0 176 0.0 6.4 22.9 330
26/03/2020 10:40 10.8 47 689.2 432 0.0 7.1 25.7 341
26/03/2020 10:50 10.7 46 299.4 52 0.0 6.7 24.2 325
26/03/2020 11:00 10.3 46 274.1 6 0.0 4.4 15.7 324
26/03/2020 11:10 10.3 45 275.9 40 0.0 6.1 22.1 340
26/03/2020 11:20 10.6 43 451.1 186 0.0 6.9 24.7 338
26/03/2020 11:30 10.9 42 451.3 178 0.0 6.4 23.2 345
26/03/2020 11:40 11.0 42 644.8 356 0.0 6.6 23.7 330
26/03/2020 11:50 11.0 40 447.9 168 0.0 6.6 23.7 338
26/03/2020 12:00 11.5 43 722.0 390 0.0 6.1 21.9 352
26/03/2020 12:10 11.4 42 655.2 332 0.0 6.3 22.6 340
26/03/2020 12:20 11.7 40 884.0 600 0.0 7.1 25.6 345
26/03/2020 12:30 11.9 41 876.0 600 0.0 6.8 24.5 344
26/03/2020 12:40 12.0 41 866.0 600 0.0 6.5 23.4 339
26/03/2020 12:50 12.2 41 802.0 558 0.0 5.8 20.8 342
26/03/2020 13:00 12.1 37 851.0 600 0.0 6.1 22.0 330
26/03/2020 13:10 12.3 38 879.0 592 0.0 5.7 20.4 326
26/03/2020 13:20 12.5 37 926.0 600 0.0 6.2 22.2 333
26/03/2020 13:30 12.6 37 664.2 374 0.0 5.8 20.8 328
26/03/2020 13:40 12.0 38 610.2 324 0.0 5.2 18.8 338
26/03/2020 13:50 12.3 37 669.6 454 0.0 6.0 21.5 332
26/03/2020 14:00 11.9 36 616.2 406 0.0 6.2 22.3 334
26/03/2020 14:10 12.1 36 780.4 580 0.0 5.9 21.3 337
26/03/2020 14:20 12.5 36 718.9 508 0.0 6.3 22.8 336
26/03/2020 14:30 12.1 38 651.7 500 0.0 5.6 20.1 335
26/03/2020 14:40 12.4 36 696.7 600 0.0 5.8 20.8 328
26/03/2020 14:50 12.5 37 661.6 600 0.0 5.9 21.2 335
26/03/2020 15:00 12.3 36 635.9 600 0.0 5.9 21.1 331
26/03/2020 15:10 12.4 35 592.9 578 0.0 5.4 19.3 318
26/03/2020 15:20 12.4 35 589.7 600 0.0 6.4 23.0 337
26/03/2020 15:30 12.0 35 390.6 360 0.0 4.7 16.8 329
26/03/2020 15:40 12.0 36 532.2 600 0.0 5.0 18.0 322
26/03/2020 15:50 12.2 36 502.3 600 0.0 5.2 18.7 330
26/03/2020 16:00 12.0 36 468.4 600 0.0 5.7 20.6 333
26/03/2020 16:10 11.9 37 420.8 600 0.0 6.0 21.5 333
26/03/2020 16:20 11.8 37 385.6 600 0.0 5.6 20.0 329
26/03/2020 16:30 11.7 37 325.5 562 0.0 5.3 19.0 334
26/03/2020 16:40 11.5 37 299.9 600 0.0 5.7 20.4 342
26/03/2020 16:50 11.3 39 136.6 196 0.0 5.2 18.5 346
26/03/2020 17:00 10.9 39 213.8 578 0.0 5.5 19.8 338
26/03/2020 17:10 10.7 39 198.5 600 0.0 5.8 21.0 339
26/03/2020 17:20 10.5 40 170.2 600 0.0 4.8 17.1 323
26/03/2020 17:30 10.1 41 134.7 600 0.0 5.3 19.2 334
26/03/2020 17:40 9.9 41 107.9 600 0.0 5.5 19.9 335
26/03/2020 17:50 9.5 41 73.8 456 0.0 4.8 17.1 335
26/03/2020 18:00 9.0 44 33.0 0 0.0 4.1 14.6 333
26/03/2020 18:10 8.6 46 23.4 0 0.0 3.2 11.6 335
26/03/2020 18:20 8.0 48 4.9 0 0.0 3.2 11.3 330
26/03/2020 18:30 7.8 48 0.0 0 0.0 3.3 12.0 328
26/03/2020 18:40 7.4 49 0.0 0 0.0 2.7 9.5 332
26/03/2020 18:50 7.0 50 0.0 0 0.0 2.7 9.6 334
26/03/2020 19:00 6.8 52 0.0 0 0.0 2.6 9.4 341
26/03/2020 19:10 6.5 53 0.0 0 0.0 3.1 11.1 329
26/03/2020 19:20 6.3 53 0.0 0 0.0 3.8 13.7 332
26/03/2020 19:30 6.3 52 0.0 0 0.0 3.6 13.0 329
26/03/2020 19:40 6.5 52 0.0 0 0.0 3.8 13.8 333
26/03/2020 19:50 6.4 53 0.0 0 0.0 3.9 14.2 336
26/03/2020 20:00 6.2 54 0.0 0 0.0 2.6 9.4 328
26/03/2020 20:10 5.8 56 0.0 0 0.0 1.1 3.9 318
26/03/2020 20:20 5.6 57 0.0 0 0.0 0.7 2.4 329
26/03/2020 20:30 5.2 60 0.0 0 0.0 1.3 4.8 329
26/03/2020 20:40 4.7 63 0.0 0 0.0 2.4 8.5 339
26/03/2020 20:50 4.6 63 0.0 0 0.0 2.1 7.6 349
26/03/2020 21:00 4.3 65 0.0 0 0.0 1.5 5.3 356
26/03/2020 21:10 4.1 67 0.0 0 0.0 1.2 4.2 315
26/03/2020 21:20 4.0 68 0.0 0 0.0 1.6 5.7 309
26/03/2020 21:30 3.8 69 0.0 0 0.0 1.8 6.6 328
26/03/2020 21:40 3.6 71 0.0 0 0.0 1.7 6.2 296
26/03/2020 21:50 3.1 74 0.0 0 0.0 1.7 6.2 301
26/03/2020 22:00 3.0 74 0.0 0 0.0 1.8 6.4 298
26/03/2020 22:10 3.0 72 0.0 0 0.0 1.7 6.2 310
26/03/2020 22:20 2.8 73 0.0 0 0.0 1.8 6.5 285
26/03/2020 22:30 2.6 72 0.0 0 0.0 1.7 6.2 297
26/03/2020 22:40 2.7 72 0.0 0 0.0 1.9 6.8 292
26/03/2020 22:50 2.6 72 0.0 0 0.0 1.8 6.6 292
26/03/2020 23:00 2.5 73 0.0 0 0.0 2.1 7.5 286
26/03/2020 23:10 2.5 72 0.0 0 0.0 1.8 6.3 290
26/03/2020 23:20 2.5 72 0.0 0 0.0 2.1 7.4 305
26/03/2020 23:30 2.4 71 0.0 0 0.0 1.9 6.9 310
26/03/2020 23:40 2.4 72 0.0 0 0.0 2.0 7.0 316
26/03/2020 23:50 2.4 72 0.0 0 0.0 2.2 8.0 327
Anterior Página 1 de 1 Siguiente

NOTA: Tipo de datos según el color:
   - Valores diarios o 10 minutos correctos
   - Valores diarios calculados a partir de un número de datos 10 minutos menor que 144 y mayor que 120, o de un número de datos semihorarios menor que 48 y mayor que 40 (caso de las estaciones de INTIA y del Ministerio)
   - Valores diez minutos estimados


Contacto        Enlaces        Aviso legal